Time;durP1;ratioP1;P1;durP2;ratioP2;P2;SDS_P1;SDS_P2;PMS_P1;PMS_P2;Temp;Humidity;BMP_temperature;BMP_pressure;BME280_temperature;BME280_humidity;BME280_pressure;Samples;Min_cycle;Max_cycle;Signal;HPM_P1;HPM_P2
2023/03/05 00:00:53;;;;;;;22.27;3.83;;;;;;;4.42;83.72;101662.09;5075871;28;20052;-52
2023/03/05 00:03:20;;;;;;;18.08;3.75;;;;;;;4.40;83.87;101659.59;5076464;28;20045;-52
2023/03/05 00:05:46;;;;;;;21.83;3.80;;;;;;;4.50;83.66;101654.63;5076663;28;20397;-51
2023/03/05 00:08:13;;;;;;;29.75;4.10;;;;;;;4.64;83.34;101655.56;5076523;28;20052;-49
2023/03/05 00:10:40;;;;;;;20.55;3.45;;;;;;;4.56;83.30;101656.84;5076384;28;20049;-50
2023/03/05 00:13:06;;;;;;;21.23;3.45;;;;;;;4.51;83.58;101653.69;5076659;28;20048;-49
2023/03/05 00:15:39;;;;;;;29.88;4.30;;;;;;;4.68;83.27;101649.19;5076315;28;20117;-51
2023/03/05 00:18:05;;;;;;;22.10;4.18;;;;;;;4.64;83.57;101650.28;5076506;28;20110;-49
2023/03/05 00:20:34;;;;;;;20.08;3.88;;;;;;;4.50;83.86;101656.41;5075678;28;20436;-52
2023/03/05 00:23:01;;;;;;;24.35;3.85;;;;;;;4.63;83.62;101653.88;5076081;28;20077;-49
2023/03/05 00:25:28;;;;;;;21.48;4.20;;;;;;;4.54;83.90;101657.91;5108845;28;20044;-53
2023/03/05 00:27:55;;;;;;;21.02;3.63;;;;;;;4.45;83.37;101648.78;5076124;28;20512;-51
2023/03/05 00:30:21;;;;;;;21.13;3.65;;;;;;;4.35;83.68;101645.03;5076067;28;20051;-51
2023/03/05 00:32:48;;;;;;;24.45;4.20;;;;;;;4.38;84.01;101639.56;5076050;28;20045;-49
2023/03/05 00:35:15;;;;;;;20.65;3.63;;;;;;;4.41;83.86;101645.50;5075965;28;20098;-53
2023/03/05 00:37:41;;;;;;;21.13;3.53;;;;;;;4.38;83.71;101650.97;5075990;28;20074;-50
2023/03/05 00:40:09;;;;;;;27.27;3.67;;;;;;;4.25;83.90;101643.88;5075905;28;20459;-52
2023/03/05 00:42:37;;;;;;;20.38;3.53;;;;;;;4.27;84.14;101645.47;5076009;28;20053;-51
2023/03/05 00:45:06;;;;;;;16.65;3.15;;;;;;;4.31;84.14;101635.63;5075530;28;20078;-50
2023/03/05 00:47:33;;;;;;;22.77;3.25;;;;;;;4.38;83.98;101632.56;5075705;28;20044;-51
2023/03/05 00:50:00;;;;;;;23.00;3.38;;;;;;;4.39;83.69;101636.03;5075473;28;20098;-52
2023/03/05 00:52:27;;;;;;;22.60;3.15;;;;;;;4.40;83.75;101633.31;5075820;28;20501;-50
2023/03/05 00:54:53;;;;;;;21.77;3.40;;;;;;;4.32;84.54;101635.53;5075428;28;20048;-50
2023/03/05 00:57:20;;;;;;;21.33;3.10;;;;;;;4.39;84.55;101626.34;5075434;28;20140;-50
2023/03/05 00:59:47;;;;;;;21.90;3.90;;;;;;;4.43;84.22;101630.47;5075291;28;20072;-51
2023/03/05 01:02:14;;;;;;;28.35;3.97;;;;;;;4.41;84.07;101626.28;5075163;28;20153;-50
2023/03/05 01:04:44;;;;;;;26.33;3.50;;;;;;;4.33;84.39;101618.84;5075514;28;20037;-52
2023/03/05 01:07:11;;;;;;;20.00;3.17;;;;;;;4.32;84.43;101622.41;5076739;28;20043;-51
2023/03/05 01:09:38;;;;;;;27.10;3.75;;;;;;;4.44;84.35;101618.22;5095576;28;20044;-50
2023/03/05 01:12:05;;;;;;;19.65;3.50;;;;;;;4.34;84.97;101614.44;5095765;28;20491;-52
2023/03/05 01:14:33;;;;;;;26.23;3.85;;;;;;;4.46;84.48;101611.06;5095455;28;20072;-50
2023/03/05 01:17:00;;;;;;;21.10;3.47;;;;;;;4.51;84.53;101609.03;5095671;28;20059;-52
2023/03/05 01:19:27;;;;;;;16.08;3.90;;;;;;;4.38;84.82;101615.94;5095052;28;20118;-49
2023/03/05 01:21:54;;;;;;;23.98;3.50;;;;;;;4.31;85.09;101609.34;5095054;28;20048;-50
2023/03/05 01:24:21;;;;;;;21.27;3.83;;;;;;;4.36;85.55;101605.50;5095319;28;20040;-50
2023/03/05 01:26:48;;;;;;;26.05;3.92;;;;;;;4.37;85.11;101601.13;5093042;28;20063;-51
2023/03/05 01:29:15;;;;;;;20.92;3.60;;;;;;;4.26;85.21;101600.91;5074615;28;20052;-49
2023/03/05 01:31:41;;;;;;;19.23;3.35;;;;;;;4.13;86.11;101600.78;5075267;28;20044;-52
2023/03/05 01:34:08;;;;;;;16.08;3.03;;;;;;;4.19;85.72;101598.66;5074857;28;20040;-52
2023/03/05 01:36:35;;;;;;;23.00;3.65;;;;;;;4.13;85.57;101593.78;5074964;28;20045;-53
2023/03/05 01:39:02;;;;;;;18.02;3.35;;;;;;;4.14;85.85;101587.56;5074579;28;20090;-52
2023/03/05 01:41:29;;;;;;;31.67;4.03;;;;;;;4.10;85.82;101587.88;5074975;28;20052;-49
2023/03/05 01:43:57;;;;;;;18.13;3.08;;;;;;;4.27;85.29;101582.44;5074552;28;20067;-53
2023/03/05 01:46:43;;;;;;;20.77;3.33;;;;;;;4.18;85.53;101582.97;5075018;28;20036;-60
2023/03/05 01:52:10;;;;;;;18.73;3.33;;;;;;;4.19;85.29;101577.66;5111385;27;20776;-48
2023/03/05 01:54:42;;;;;;;19.92;3.65;;;;;;;4.25;84.77;101575.59;5111256;28;20044;-51
2023/03/05 01:57:12;;;;;;;;;;;;;;;4.26;84.65;101572.88;5111436;28;20039;-50
2023/03/05 01:59:43;;;;;;;20.47;4.03;;;;;;;4.28;84.56;101572.78;5110660;28;19922;-50
2023/03/05 02:02:12;;;;;;;18.02;3.67;;;;;;;4.23;84.88;101565.16;5110823;28;20048;-51
2023/03/05 02:04:45;;;;;;;24.02;4.15;;;;;;;4.39;84.58;101570.34;5110606;28;20040;-51
2023/03/05 02:07:14;;;;;;;22.67;3.13;;;;;;;4.37;84.67;101565.19;5110885;28;20122;-52
2023/03/05 02:09:41;;;;;;;14.48;2.92;;;;;;;4.42;84.33;101560.50;5110959;28;20082;-52
2023/03/05 02:12:10;;;;;;;17.38;3.58;;;;;;;4.39;84.67;101559.84;5110769;28;20092;-53
2023/03/05 02:14:40;;;;;;;22.70;4.05;;;;;;;4.27;85.31;101553.53;5111198;28;20046;-52
2023/03/05 02:17:07;;;;;;;18.83;3.60;;;;;;;4.21;85.42;101544.25;5110716;28;20497;-50
2023/03/05 02:19:52;;;;;;;21.10;4.10;;;;;;;4.26;86.04;101546.59;5110489;28;20040;-51
2023/03/05 02:22:22;;;;;;;31.33;4.38;;;;;;;4.28;85.49;101544.72;5110583;28;20055;-49
2023/03/05 02:24:49;;;;;;;23.30;3.78;;;;;;;4.31;85.29;101541.94;5110642;28;20085;-52
2023/03/05 02:27:18;;;;;;;17.05;3.40;;;;;;;4.29;85.42;101535.06;5110308;28;20113;-49
2023/03/05 02:29:45;;;;;;;23.00;3.88;;;;;;;4.48;84.71;101537.41;5109424;28;20062;-50
2023/03/05 02:32:12;;;;;;;18.27;3.78;;;;;;;4.28;85.44;101534.22;5110352;28;20048;-52
2023/03/05 02:34:39;;;;;;;21.67;4.82;;;;;;;4.19;85.65;101534.78;5109272;28;20047;-52
2023/03/05 02:37:09;;;;;;;18.45;3.45;;;;;;;4.21;85.12;101535.53;5109220;28;20052;-51
2023/03/05 02:39:37;;;;;;;10.75;3.28;;;;;;;4.26;84.34;101520.34;5110301;28;20130;-51
2023/03/05 02:42:04;;;;;;;15.60;3.17;;;;;;;4.22;83.91;101527.56;5110092;28;20040;-49
2023/03/05 02:44:32;;;;;;;17.63;3.08;;;;;;;4.09;83.53;101515.25;5110418;28;20093;-50
2023/03/05 02:46:59;;;;;;;20.60;3.97;;;;;;;4.13;83.63;101516.75;5110192;28;20068;-49
2023/03/05 02:49:27;;;;;;;21.05;4.25;;;;;;;4.19;84.30;101519.03;5109828;28;20040;-48
2023/03/05 02:51:54;;;;;;;23.45;4.22;;;;;;;4.32;83.03;101511.25;5109552;28;20059;-49
2023/03/05 02:54:20;;;;;;;22.27;4.55;;;;;;;4.17;84.31;101513.03;5110098;28;20052;-52
2023/03/05 02:56:47;;;;;;;24.50;3.90;;;;;;;4.03;85.52;101506.81;5109878;28;20044;-53
2023/03/05 02:59:14;;;;;;;33.35;5.05;;;;;;;4.22;85.04;101514.44;5109705;28;20048;-50
2023/03/05 03:01:41;;;;;;;16.27;4.30;;;;;;;4.19;85.38;101506.72;5105588;28;20064;-49
2023/03/05 03:04:08;;;;;;;21.58;4.25;;;;;;;4.03;86.07;101498.09;5096115;28;20048;-51
2023/03/05 03:06:34;;;;;;;26.08;4.65;;;;;;;4.06;86.04;101497.94;5096394;28;20048;-50
2023/03/05 03:09:01;;;;;;;21.50;4.00;;;;;;;3.97;86.45;101498.50;5092691;28;20496;-50
2023/03/05 03:11:28;;;;;;;21.65;4.70;;;;;;;3.94;86.84;101490.78;5095793;28;20035;-50
2023/03/05 03:13:54;;;;;;;26.48;4.28;;;;;;;4.00;86.81;101487.78;5095765;28;20397;-49
2023/03/05 03:16:21;;;;;;;24.08;4.97;;;;;;;3.95;86.81;101482.00;5096134;28;20040;-51
2023/03/05 03:18:48;;;;;;;18.63;4.70;;;;;;;3.84;87.54;101472.97;5095657;28;20044;-51
2023/03/05 03:21:17;;;;;;;19.77;4.50;;;;;;;3.78;88.11;101482.97;5095985;28;20051;-49
2023/03/05 03:23:44;;;;;;;31.08;4.97;;;;;;;3.81;88.61;101475.78;5095820;28;20048;-50
2023/03/05 03:26:11;;;;;;;29.88;4.40;;;;;;;3.83;88.46;101479.13;5094878;28;20044;-52
2023/03/05 03:28:38;;;;;;;23.38;5.00;;;;;;;3.97;87.72;101474.84;5095407;28;20044;-49
2023/03/05 03:31:05;;;;;;;19.77;3.88;;;;;;;4.04;87.22;101479.63;5095747;28;20071;-50
2023/03/05 03:33:31;;;;;;;24.45;3.55;;;;;;;3.82;87.89;101469.59;5095859;28;20044;-52
2023/03/05 03:35:58;;;;;;;19.52;3.67;;;;;;;3.79;88.13;101461.91;5095317;28;20447;-51
2023/03/05 03:38:25;;;;;;;15.15;3.03;;;;;;;3.87;87.65;101465.84;5095486;28;20393;-50
2023/03/05 03:40:51;;;;;;;16.88;2.80;;;;;;;3.76;87.44;101464.69;5095536;28;20051;-52
2023/03/05 03:43:18;;;;;;;13.15;2.90;;;;;;;3.89;86.94;101469.22;5095805;28;20508;-51
2023/03/05 03:45:46;;;;;;;15.90;2.63;;;;;;;3.68;86.98;101461.69;5095227;28;20050;-49
2023/03/05 03:48:13;;;;;;;15.27;2.53;;;;;;;3.78;87.32;101456.72;5095341;28;20396;-52
2023/03/05 03:50:41;;;;;;;12.90;2.72;;;;;;;3.84;87.57;101462.47;5094564;28;20052;-48
2023/03/05 03:53:11;;;;;;;12.77;2.40;;;;;;;3.80;87.58;101452.22;5095399;28;20040;-49
2023/03/05 03:55:41;;;;;;;11.13;2.78;;;;;;;3.83;87.48;101457.31;5095347;28;20055;-52
2023/03/05 03:58:09;;;;;;;19.90;2.80;;;;;;;4.00;87.37;101448.41;5095286;28;20072;-49
2023/03/05 04:00:37;;;;;;;27.35;3.70;;;;;;;3.85;87.42;101451.00;5094318;28;20401;-49
2023/03/05 04:03:04;;;;;;;21.83;2.95;;;;;;;3.96;87.57;101453.00;5094973;28;20397;-51
2023/03/05 04:05:31;;;;;;;14.80;3.17;;;;;;;3.86;87.90;101441.38;5094934;28;20051;-52
2023/03/05 04:07:58;;;;;;;17.52;3.40;;;;;;;3.86;88.21;101436.13;5093595;28;20077;-50
2023/03/05 04:10:25;;;;;;;20.30;3.22;;;;;;;3.88;88.23;101433.41;5094795;28;20507;-52
2023/03/05 04:12:52;;;;;;;23.92;4.03;;;;;;;3.90;88.07;101436.78;5094607;28;20428;-49
2023/03/05 04:15:18;;;;;;;14.93;3.85;;;;;;;3.73;88.92;101429.91;5094338;28;20052;-52
2023/03/05 04:17:45;;;;;;;19.85;3.20;;;;;;;3.67;89.44;101425.06;5094824;28;20044;-51
2023/03/05 04:20:12;;;;;;;16.95;3.80;;;;;;;3.77;88.94;101423.56;5094677;28;20040;-51
2023/03/05 04:22:39;;;;;;;14.80;3.58;;;;;;;3.82;88.77;101426.72;5094228;28;20443;-50
2023/03/05 04:25:07;;;;;;;16.60;4.10;;;;;;;3.68;89.32;101424.13;5094885;28;20043;-49
2023/03/05 04:27:36;;;;;;;23.58;3.80;;;;;;;3.60;90.11;101419.31;5094440;28;20044;-51
2023/03/05 04:30:03;;;;;;;18.30;3.70;;;;;;;3.73;89.63;101414.16;5094703;28;20044;-49
2023/03/05 04:32:30;;;;;;;24.58;4.15;;;;;;;3.74;90.01;101413.25;5094152;28;20037;-50
2023/03/05 04:34:58;;;;;;;22.63;4.20;;;;;;;3.83;89.35;101405.66;5094182;28;20048;-50
2023/03/05 04:37:25;;;;;;;23.33;4.22;;;;;;;3.74;89.51;101405.38;5094326;28;20130;-48
2023/03/05 04:39:52;;;;;;;20.42;4.35;;;;;;;3.67;89.98;101398.81;5094126;28;20044;-50
2023/03/05 04:42:19;;;;;;;26.65;4.30;;;;;;;3.67;89.94;101399.66;5094117;28;20478;-51
2023/03/05 04:44:48;;;;;;;19.42;3.83;;;;;;;3.74;89.71;101398.34;5094557;28;20050;-50
2023/03/05 04:47:17;;;;;;;18.38;3.70;;;;;;;3.67;89.75;101404.06;5094028;28;20161;-48
2023/03/05 04:49:44;;;;;;;16.10;3.88;;;;;;;3.76;89.62;101401.72;5094000;28;20047;-52
2023/03/05 04:52:12;;;;;;;27.42;3.75;;;;;;;3.81;89.67;101402.28;5094179;28;20048;-49
2023/03/05 04:54:39;;;;;;;21.05;3.72;;;;;;;3.89;89.08;101401.81;5094102;28;20485;-49
2023/03/05 04:57:06;;;;;;;22.58;4.53;;;;;;;3.96;88.67;101403.09;5094491;28;20109;-50
2023/03/05 04:59:32;;;;;;;24.58;4.30;;;;;;;3.94;88.66;101396.28;5093533;28;20040;-50
2023/03/05 05:01:59;;;;;;;22.13;4.35;;;;;;;4.01;88.41;101390.53;5092510;28;20062;-50
2023/03/05 05:04:26;;;;;;;23.50;4.20;;;;;;;3.93;88.03;101398.06;5093587;28;20515;-52
2023/03/05 05:06:56;;;;;;;23.30;5.10;;;;;;;3.90;88.36;101390.38;5092718;28;20047;-51
2023/03/05 05:09:23;;;;;;;16.92;4.47;;;;;;;3.65;89.68;101388.41;5090490;28;20043;-50
2023/03/05 05:11:50;;;;;;;22.85;4.32;;;;;;;3.57;90.07;101388.03;5092682;28;20504;-51
2023/03/05 05:14:17;;;;;;;20.88;4.10;;;;;;;3.46;91.03;101378.19;5092660;28;20099;-53
2023/03/05 05:16:44;;;;;;;21.50;4.07;;;;;;;3.52;90.13;101382.22;5093940;28;20055;-52
2023/03/05 05:19:11;;;;;;;20.35;4.10;;;;;;;3.29;91.57;101371.31;5093100;28;20119;-51
2023/03/05 05:21:38;;;;;;;25.42;4.22;;;;;;;3.08;92.12;101366.41;5093721;28;20443;-51
2023/03/05 05:24:05;;;;;;;17.45;4.75;;;;;;;3.14;92.30;101367.00;5093692;28;20447;-50
2023/03/05 05:26:31;;;;;;;24.45;5.05;;;;;;;3.21;91.94;101363.09;5093169;28;20488;-50
2023/03/05 05:28:58;;;;;;;20.33;4.70;;;;;;;3.16;91.78;101358.09;5093560;28;20047;-49
2023/03/05 05:31:25;;;;;;;20.45;4.90;;;;;;;3.16;91.60;101350.22;5093678;28;20044;-52
2023/03/05 05:33:52;;;;;;;26.60;4.22;;;;;;;3.20;92.71;101348.28;5093651;28;20558;-48
2023/03/05 05:36:21;;;;;;;25.33;4.00;;;;;;;3.34;91.50;101343.03;5093363;28;20068;-48
2023/03/05 05:38:48;;;;;;;17.75;4.10;;;;;;;3.32;91.43;101350.16;5093176;28;20043;-48
2023/03/05 05:41:17;;;;;;;21.42;4.28;;;;;;;3.43;91.62;101352.13;5093554;28;20443;-48
2023/03/05 05:43:44;;;;;;;23.60;4.07;;;;;;;3.53;90.85;101350.66;5093378;28;20040;-49
2023/03/05 05:46:15;;;;;;;17.63;3.58;;;;;;;3.53;90.57;101353.28;5093445;28;20086;-48
2023/03/05 05:48:43;;;;;;;23.17;4.18;;;;;;;3.42;90.52;101355.69;5093220;28;20048;-48
2023/03/05 05:51:14;;;;;;;17.40;3.78;;;;;;;3.26;91.42;101348.75;5092765;28;20048;-49
2023/03/05 05:53:42;;;;;;;20.92;4.15;;;;;;;3.26;91.50;101358.41;5093357;28;20059;-49
2023/03/05 05:56:10;;;;;;;26.88;4.40;;;;;;;3.50;90.57;101356.09;5093422;28;20044;-51
2023/03/05 05:58:38;;;;;;;21.63;3.92;;;;;;;3.40;91.25;101358.44;5093250;28;20048;-48
2023/03/05 06:01:16;;;;;;;20.85;4.38;;;;;;;3.40;91.50;101357.56;5091142;28;20398;-50
2023/03/05 06:03:43;;;;;;;27.40;5.65;;;;;;;3.50;90.24;101355.25;5093363;28;20553;-49
2023/03/05 06:06:11;;;;;;;19.30;4.32;;;;;;;3.64;89.34;101355.25;5092776;28;20408;-48
2023/03/05 06:08:38;;;;;;;26.98;4.78;;;;;;;3.66;88.84;101348.13;5091684;28;20048;-51
2023/03/05 06:11:06;;;;;;;27.30;5.22;;;;;;;3.64;88.53;101352.63;5092796;28;20153;-50
2023/03/05 06:13:32;;;;;;;22.02;5.05;;;;;;;3.68;88.62;101362.00;5093303;28;20245;-50
2023/03/05 06:16:01;;;;;;;27.42;4.40;;;;;;;3.76;88.05;101357.09;5091719;28;20036;-49
2023/03/05 06:18:29;;;;;;;17.52;4.82;;;;;;;3.83;87.69;101361.03;5092979;28;20048;-52
2023/03/05 06:20:58;;;;;;;21.55;4.18;;;;;;;3.89;87.32;101357.19;5091803;28;20131;-50
2023/03/05 06:23:26;;;;;;;27.48;4.90;;;;;;;3.80;87.46;101357.75;5092759;28;20067;-51
2023/03/05 06:25:54;;;;;;;18.98;4.38;;;;;;;3.64;88.22;101356.09;5093161;28;20435;-51
2023/03/05 06:28:21;;;;;;;24.48;4.47;;;;;;;3.67;88.13;101355.03;5092887;28;20052;-52
2023/03/05 06:30:47;;;;;;;27.77;4.85;;;;;;;3.63;87.56;101350.94;5092663;28;20048;-50
2023/03/05 06:33:14;;;;;;;23.83;4.32;;;;;;;3.53;87.81;101348.03;5092602;28;20131;-48
2023/03/05 06:35:40;;;;;;;24.05;4.55;;;;;;;3.43;88.65;101352.13;5092721;28;20068;-48
2023/03/05 06:38:08;;;;;;;22.60;5.03;;;;;;;3.67;87.94;101349.78;5095214;28;20043;-49
2023/03/05 06:40:38;;;;;;;18.88;4.53;;;;;;;3.57;88.15;101346.06;5096603;28;20489;-49
2023/03/05 06:43:04;;;;;;;27.55;4.57;;;;;;;3.65;87.68;101351.66;5096761;28;20131;-49
2023/03/05 06:45:32;;;;;;;24.48;4.78;;;;;;;3.78;87.02;101352.63;5096909;28;20481;-48
2023/03/05 06:48:00;;;;;;;16.98;4.40;;;;;;;3.62;86.90;101352.72;5094925;28;20040;-49
2023/03/05 06:50:27;;;;;;;16.60;4.38;;;;;;;3.80;86.03;101352.50;5096205;28;20079;-51
2023/03/05 06:52:54;;;;;;;26.98;5.22;;;;;;;3.67;86.70;101352.41;5096496;28;20142;-49
2023/03/05 06:55:21;;;;;;;21.42;4.85;;;;;;;3.79;85.32;101354.28;5096301;28;20040;-49
2023/03/05 06:57:48;;;;;;;25.08;5.28;;;;;;;3.77;85.79;101350.91;5096018;28;20447;-50
2023/03/05 07:00:15;;;;;;;23.48;4.78;;;;;;;3.89;85.68;101348.47;5094669;28;20048;-49
2023/03/05 07:02:41;;;;;;;22.45;5.13;;;;;;;3.73;86.18;101346.81;5094506;28;20384;-50
2023/03/05 07:05:09;;;;;;;20.52;5.00;;;;;;;3.77;86.22;101350.09;5094471;28;20047;-52
2023/03/05 07:07:35;;;;;;;28.92;5.10;;;;;;;3.82;85.89;101345.38;5089698;28;20040;-49
2023/03/05 07:10:06;;;;;;;16.92;4.82;;;;;;;3.88;85.73;101344.16;5091815;28;20485;-51
2023/03/05 07:12:34;;;;;;;25.05;5.85;;;;;;;3.73;86.79;101338.94;5094611;28;20044;-50
2023/03/05 07:15:01;;;;;;;22.50;4.88;;;;;;;3.54;87.68;101341.84;5094725;28;20040;-50
2023/03/05 07:17:27;;;;;;;28.85;5.38;;;;;;;3.59;87.54;101339.78;5095584;28;20051;-49
2023/03/05 07:19:54;;;;;;;25.85;5.90;;;;;;;3.47;88.43;101332.66;5095552;28;20047;-49
2023/03/05 07:22:21;;;;;;;24.30;6.28;;;;;;;3.48;88.20;101339.59;5095948;28;20040;-50
2023/03/05 07:24:47;;;;;;;21.35;5.15;;;;;;;3.28;89.44;101337.34;5094758;28;20101;-49
2023/03/05 07:27:14;;;;;;;21.90;6.18;;;;;;;3.32;90.11;101331.81;5096008;28;20508;-50
2023/03/05 07:29:40;;;;;;;21.52;5.28;;;;;;;3.36;89.68;101335.91;5095747;28;20044;-52
2023/03/05 07:32:07;;;;;;;26.70;5.90;;;;;;;3.36;90.21;101333.28;5095689;28;20047;-51
2023/03/05 07:34:36;;;;;;;25.65;5.65;;;;;;;3.40;90.12;101331.34;5095295;28;20043;-49
2023/03/05 07:37:03;;;;;;;25.38;5.82;;;;;;;3.41;89.82;101330.41;5095607;28;20085;-49
2023/03/05 07:39:29;;;;;;;28.80;6.47;;;;;;;3.49;90.02;101324.69;5095538;28;20044;-51
2023/03/05 07:41:56;;;;;;;24.27;6.00;;;;;;;3.58;89.42;101324.94;5095604;28;20047;-50
2023/03/05 07:44:28;;;;;;;25.40;5.88;;;;;;;3.50;90.42;101324.59;5095651;28;20060;-50
2023/03/05 07:46:55;;;;;;;25.38;6.05;;;;;;;3.45;90.76;101324.03;5094980;28;20119;-53
2023/03/05 07:49:22;;;;;;;23.77;6.22;;;;;;;3.48;90.93;101326.47;5095311;28;20493;-51
2023/03/05 07:51:50;;;;;;;24.98;6.32;;;;;;;3.44;90.86;101319.75;5094532;28;20444;-48
2023/03/05 07:54:16;;;;;;;28.80;5.72;;;;;;;3.45;90.47;101319.63;5095038;28;20401;-50
2023/03/05 07:56:43;;;;;;;46.33;5.88;;;;;;;3.58;90.72;101319.72;5093758;28;20500;-51
2023/03/05 07:59:12;;;;;;;25.17;6.50;;;;;;;3.58;90.38;101321.50;5094708;28;20127;-51
2023/03/05 08:01:38;;;;;;;27.55;5.95;;;;;;;3.51;90.61;101313.19;5094546;28;20485;-52
2023/03/05 08:04:06;;;;;;;28.02;6.68;;;;;;;3.53;90.58;101311.31;5095230;28;20494;-48
2023/03/05 08:06:33;;;;;;;30.83;6.22;;;;;;;3.60;90.28;101306.50;5094834;28;20051;-51
2023/03/05 08:09:00;;;;;;;34.53;7.10;;;;;;;3.47;90.57;101306.41;5095037;28;20515;-50
2023/03/05 08:11:27;;;;;;;32.90;6.28;;;;;;;3.60;90.41;101310.00;5094814;28;20048;-51
2023/03/05 08:13:58;;;;;;;32.08;6.47;;;;;;;3.64;90.62;101311.47;5094635;28;20070;-49
2023/03/05 08:16:25;;;;;;;23.15;5.57;;;;;;;3.56;90.85;101299.75;5094907;28;20072;-51
2023/03/05 08:18:55;;;;;;;38.15;6.13;;;;;;;3.55;90.49;101304.19;5094621;28;20051;-49
2023/03/05 08:21:28;;;;;;;26.35;6.82;;;;;;;3.52;91.15;101304.34;5094724;28;20050;-49
2023/03/05 08:23:56;;;;;;;27.65;6.35;;;;;;;3.56;91.03;101297.97;5094698;28;20072;-47
2023/03/05 08:26:25;;;;;;;21.27;6.78;;;;;;;3.63;90.50;101293.19;5094468;28;20078;-52
2023/03/05 08:28:52;;;;;;;30.45;7.15;;;;;;;3.63;90.75;101290.56;5094276;28;20044;-51
2023/03/05 08:31:21;;;;;;;32.60;6.80;;;;;;;3.80;89.92;101286.88;5093331;28;20040;-54
2023/03/05 08:33:48;;;;;;;25.92;6.55;;;;;;;4.00;89.07;101280.38;5094251;28;20140;-52
2023/03/05 08:36:15;;;;;;;23.88;6.10;;;;;;;3.94;88.81;101275.53;5094264;28;20123;-51
2023/03/05 08:38:43;;;;;;;23.77;5.88;;;;;;;4.06;88.87;101276.50;5094204;28;20062;-50
2023/03/05 08:41:10;;;;;;;29.13;6.10;;;;;;;4.14;89.06;101267.19;5094345;28;20044;-51
2023/03/05 08:43:38;;;;;;;23.25;6.50;;;;;;;4.19;89.44;101273.00;5094215;28;20040;-49
2023/03/05 08:46:04;;;;;;;29.38;6.95;;;;;;;4.33;88.55;101272.09;5094301;28;20039;-52
2023/03/05 08:48:32;;;;;;;25.90;6.72;;;;;;;4.35;87.67;101264.13;5094120;28;20526;-51
2023/03/05 08:51:08;;;;;;;29.70;7.47;;;;;;;4.24;89.45;101267.47;5093430;28;20056;-53
2023/03/05 08:53:35;;;;;;;25.52;7.57;;;;;;;4.34;88.86;101265.91;5094048;28;20048;-53
2023/03/05 08:56:02;;;;;;;31.20;7.45;;;;;;;4.49;87.88;101271.09;5093986;28;20377;-50
2023/03/05 08:58:30;;;;;;;32.28;7.13;;;;;;;4.38;86.83;101253.41;5093618;28;20044;-52
2023/03/05 09:00:56;;;;;;;27.48;7.45;;;;;;;4.43;86.54;101267.06;5092558;28;20064;-50
2023/03/05 09:03:23;;;;;;;21.80;6.72;;;;;;;4.67;84.27;101274.28;5092758;28;20040;-51
2023/03/05 09:05:50;;;;;;;25.17;7.53;;;;;;;4.53;85.15;101256.78;5093633;28;20052;-51
2023/03/05 09:08:17;;;;;;;28.25;7.30;;;;;;;4.64;84.06;101256.94;5093887;28;20054;-52
2023/03/05 09:10:45;;;;;;;34.75;7.90;;;;;;;4.58;84.29;101259.97;5092027;28;20089;-49
2023/03/05 09:13:11;;;;;;;27.52;7.47;;;;;;;4.59;83.78;101251.97;5093411;28;20067;-52
2023/03/05 09:15:38;;;;;;;28.40;7.32;;;;;;;4.67;83.15;101248.81;5093357;28;20549;-50
2023/03/05 09:18:07;;;;;;;23.02;6.72;;;;;;;4.77;83.15;101257.78;5093784;28;20048;-50
2023/03/05 09:20:36;;;;;;;33.78;8.32;;;;;;;4.81;82.81;101251.38;5093132;28;20072;-49
2023/03/05 09:23:02;;;;;;;27.02;6.97;;;;;;;4.87;81.32;101252.72;5093352;28;20051;-51
2023/03/05 09:25:29;;;;;;;28.65;8.60;;;;;;;4.85;83.25;101257.25;5088330;28;20052;-49
2023/03/05 09:27:55;;;;;;;26.70;7.57;;;;;;;4.88;83.77;101245.72;5093085;28;20512;-48
2023/03/05 09:30:22;;;;;;;20.33;6.65;;;;;;;4.71;83.27;101246.84;5092074;28;20070;-48
2023/03/05 09:32:50;;;;;;;21.42;6.53;;;;;;;4.89;81.71;101242.94;5093275;28;20055;-50
2023/03/05 09:35:16;;;;;;;14.20;6.43;;;;;;;4.88;82.03;101240.44;5092923;28;20047;-50
2023/03/05 09:37:43;;;;;;;38.42;8.18;;;;;;;4.76;83.03;101235.06;5091407;28;20032;-48
2023/03/05 09:40:16;;;;;;;27.90;7.93;;;;;;;4.93;81.99;101230.44;5093408;28;20090;-49
2023/03/05 09:42:58;;;;;;;26.00;7.72;;;;;;;4.94;83.61;101230.34;5093502;28;20040;-48
2023/03/05 09:45:27;;;;;;;23.38;9.05;;;;;;;5.00;83.08;101237.81;5093574;28;20048;-50
2023/03/05 09:48:24;;;;;;;25.73;8.50;;;;;;;4.62;84.80;101232.56;5093190;28;20162;-49
2023/03/05 09:51:00;;;;;;;23.85;6.90;;;;;;;4.49;85.93;101237.75;5092703;28;20054;-48
2023/03/05 09:53:47;;;;;;;19.33;7.18;;;;;;;4.30;87.25;101230.28;5093436;28;20473;-48
2023/03/05 09:56:21;;;;;;;29.02;7.10;;;;;;;4.36;87.66;101231.66;5092991;28;20048;-50
2023/03/05 09:58:52;;;;;;;21.65;7.82;;;;;;;4.51;86.77;101225.38;5092941;28;20047;-50
2023/03/05 10:01:28;;;;;;;26.17;9.65;;;;;;;4.60;86.75;101224.75;5092128;28;20090;-52
2023/03/05 10:04:00;;;;;;;30.85;11.40;;;;;;;4.31;87.04;101221.47;5089436;28;20079;-49
2023/03/05 10:06:34;;;;;;;26.23;11.70;;;;;;;4.12;88.25;101221.81;5075297;28;20110;-51
2023/03/05 10:12:02;;;;;;;31.67;12.73;;;;;;;4.22;88.71;101215.03;5094027;27;20402;-54
2023/03/05 10:14:32;;;;;;;;;;;;;;;4.12;89.71;101211.31;5094610;28;20076;-53
2023/03/05 10:17:11;;;;;;;33.30;11.80;;;;;;;4.30;89.06;101211.06;5110698;28;19920;-50
2023/03/05 10:19:53;;;;;;;33.80;12.82;;;;;;;4.46;88.48;101216.97;5105326;28;20389;-48
2023/03/05 10:22:21;;;;;;;;;;;;;;;4.64;87.93;101212.25;5090787;28;20059;-48
2023/03/05 10:25:17;;;;;;;37.88;12.20;;;;;;;4.70;87.76;101205.75;5104815;28;19920;-51
2023/03/05 10:27:50;;;;;;;164.65;63.35;;;;;;;4.84;86.42;101197.75;5098143;28;20047;-48
2023/03/05 10:30:32;;;;;;;36.95;13.63;;;;;;;4.91;85.57;101196.38;5090962;28;20482;-51
2023/03/05 10:33:39;;;;;;;28.25;10.38;;;;;;;5.10;84.95;101193.31;5106523;28;20054;-51
2023/03/05 10:36:25;;;;;;;22.10;9.07;;;;;;;5.09;84.61;101196.88;5114040;28;20432;-55
2023/03/05 10:39:08;;;;;;;17.25;8.68;;;;;;;5.21;83.91;101197.81;5089932;28;20130;-48
2023/03/05 10:42:04;;;;;;;21.42;8.88;;;;;;;5.36;82.76;101186.19;5090389;28;20558;-53
2023/03/05 10:44:45;;;;;;;21.60;9.82;;;;;;;5.60;82.22;101185.38;5089817;28;20566;-53
2023/03/05 10:47:21;;;;;;;24.58;11.48;;;;;;;5.58;80.76;101187.28;5090321;28;20485;-52
2023/03/05 10:49:51;;;;;;;23.98;10.50;;;;;;;5.73;81.09;101183.56;5089909;28;20170;-51
2023/03/05 10:52:33;;;;;;;26.50;10.63;;;;;;;5.88;79.85;101172.88;5089995;28;20055;-53
2023/03/05 10:55:00;;;;;;;22.73;11.70;;;;;;;5.63;80.14;101166.75;5090017;28;20534;-51
2023/03/05 10:57:30;;;;;;;26.67;11.60;;;;;;;5.89;79.40;101167.47;5098107;28;20044;-50
2023/03/05 11:00:12;;;;;;;26.20;11.30;;;;;;;6.00;79.73;101174.59;5109405;28;20036;-50
2023/03/05 11:02:59;;;;;;;18.65;8.57;;;;;;;6.09;77.57;101171.31;5109857;28;20104;-50
2023/03/05 11:05:55;;;;;;;23.48;8.93;;;;;;;6.28;76.03;101176.03;5109988;28;20044;-51
2023/03/05 11:08:31;;;;;;;18.98;8.00;;;;;;;6.24;75.40;101171.94;5109592;28;20058;-50
2023/03/05 11:14:02;;;;;;;25.58;8.32;;;;;;;6.18;77.75;101161.84;5110896;27;20380;-50
2023/03/05 11:16:32;;;;;;;18.92;8.30;;;;;;;6.19;76.94;101157.44;5110722;28;20047;-51
2023/03/05 11:19:21;;;;;;;16.55;7.30;;;;;;;6.06;76.11;101157.53;5111041;28;20097;-49
2023/03/05 11:24:40;;;;;;;19.05;8.02;;;;;;;5.96;76.27;101144.19;5111244;27;20347;-50
2023/03/05 11:27:35;;;;;;;18.30;8.00;;;;;;;6.05;75.29;101140.84;5107942;28;20066;-49
2023/03/05 11:30:03;;;;;;;24.75;8.18;;;;;;;5.84;77.23;101138.00;5110313;28;20044;-50
2023/03/05 11:32:30;;;;;;;24.02;8.73;;;;;;;6.02;75.59;101135.84;5110766;28;20097;-52
2023/03/05 11:34:57;;;;;;;16.50;7.72;;;;;;;6.02;75.14;101135.84;5110979;28;20055;-51
2023/03/05 11:40:19;;;;;;;22.20;8.85;;;;;;;5.21;80.28;101125.97;5111061;27;20374;-53
2023/03/05 11:42:54;;;;;;;23.38;9.27;;;;;;;5.23;80.28;101122.25;5110727;28;20036;-53
2023/03/05 11:45:22;;;;;;;19.20;9.68;;;;;;;5.15;80.45;101128.06;5111306;28;20056;-53
2023/03/05 11:47:52;;;;;;;21.58;7.80;;;;;;;5.18;79.74;101121.75;5110850;28;20529;-50
2023/03/05 11:50:24;;;;;;;20.75;9.48;;;;;;;5.32;79.84;101126.03;5111195;28;20043;-51